createdAt,value
2019-06-10T00:06:51.000Z,34.791
2019-06-10T00:16:51.000Z,34.965
2019-06-10T00:26:53.000Z,35.031
2019-06-10T00:36:51.000Z,35.13
2019-06-10T00:46:51.000Z,35.229
2019-06-10T00:56:51.000Z,35.337
2019-06-10T01:06:51.000Z,35.468
2019-06-10T01:16:51.000Z,35.533
2019-06-10T01:26:51.000Z,35.611
2019-06-10T01:36:55.000Z,35.744
2019-06-10T01:46:51.000Z,35.854
2019-06-10T01:56:52.000Z,36.016
2019-06-10T02:06:51.000Z,36.092
2019-06-10T02:16:52.000Z,36.202
2019-06-10T02:26:51.000Z,36.223
2019-06-10T02:36:51.000Z,36.245
2019-06-10T02:46:52.000Z,36.364
2019-06-10T02:56:52.000Z,36.46
2019-06-10T03:06:53.000Z,36.502
2019-06-10T03:16:52.000Z,36.558
2019-06-10T03:26:52.000Z,36.589
2019-06-10T03:36:53.000Z,36.699
2019-06-10T03:46:52.000Z,36.751
2019-06-10T03:56:52.000Z,36.762
2019-06-10T04:06:52.000Z,36.872
2019-06-10T04:16:52.000Z,36.816
2019-06-10T04:26:52.000Z,36.805
2019-06-10T04:36:52.000Z,36.967
2019-06-10T04:46:52.000Z,37.01
2019-06-10T04:56:52.000Z,37.011
2019-06-10T05:06:55.000Z,37.054
2019-06-10T05:16:52.000Z,37.131
2019-06-10T05:26:53.000Z,37.195
2019-06-10T05:36:52.000Z,37.228
2019-06-10T05:46:52.000Z,37.241
2019-06-10T05:56:54.000Z,37.242
2019-06-10T06:06:53.000Z,37.276
2019-06-10T06:16:52.000Z,37.321
2019-06-10T06:26:52.000Z,37.281
2019-06-10T06:36:52.000Z,37.227
2019-06-10T06:46:52.000Z,37.402
2019-06-10T06:56:52.000Z,37.392
2019-06-10T07:06:52.000Z,37.481
2019-06-10T07:16:54.000Z,37.461
2019-06-10T07:26:52.000Z,37.452
2019-06-10T07:36:52.000Z,37.498
2019-06-10T07:46:52.000Z,37.543
2019-06-10T07:56:52.000Z,37.537
2019-06-10T08:06:52.000Z,37.506
2019-06-10T08:16:52.000Z,37.315
2019-06-10T08:26:52.000Z,38.257
2019-06-10T08:36:53.000Z,38.344
2019-06-10T08:46:52.000Z,38.116
2019-06-10T08:56:52.000Z,37.718
2019-06-10T09:06:52.000Z,37.575
2019-06-10T09:16:52.000Z,37.39
2019-06-10T09:26:55.000Z,37.15
2019-06-10T09:36:52.000Z,36.992
2019-06-10T09:46:52.000Z,37.174
2019-06-10T09:56:52.000Z,37.002
2019-06-10T10:06:53.000Z,37.15
2019-06-10T10:16:52.000Z,37.077
2019-06-10T10:26:52.000Z,37.273
2019-06-10T10:36:52.000Z,37.18
2019-06-10T10:46:52.000Z,37.305
2019-06-10T10:56:52.000Z,37.558
2019-06-10T11:06:57.000Z,38.252
2019-06-10T11:16:56.000Z,37.99
2019-06-10T11:26:53.000Z,37.775
2019-06-10T11:36:53.000Z,37.859
2019-06-10T11:46:53.000Z,38.083
2019-06-10T11:56:53.000Z,38.086
2019-06-10T12:06:53.000Z,37.705
2019-06-10T12:26:53.000Z,37.491
2019-06-10T12:36:53.000Z,37.481
2019-06-10T12:46:54.000Z,37.651
2019-06-10T12:56:54.000Z,37.708
2019-06-10T13:06:53.000Z,37.747
2019-06-10T13:16:54.000Z,37.726
2019-06-10T13:36:53.000Z,37.572
2019-06-10T13:46:53.000Z,36.156
2019-06-10T13:56:54.000Z,36.206
2019-06-10T14:06:53.000Z,36.686
2019-06-10T14:16:53.000Z,36.493
2019-06-10T14:26:53.000Z,36.272
2019-06-10T14:36:53.000Z,35.721
2019-06-10T14:46:53.000Z,35.919
2019-06-10T14:56:54.000Z,36.118
2019-06-10T15:06:54.000Z,36.332
2019-06-10T15:16:53.000Z,35.755
2019-06-10T15:26:53.000Z,35.957
2019-06-10T15:36:53.000Z,36.27
2019-06-10T15:46:53.000Z,36.219
2019-06-10T15:56:53.000Z,36.362
2019-06-10T16:16:53.000Z,37.025
2019-06-10T16:26:53.000Z,37.012
2019-06-10T16:36:53.000Z,37.136
2019-06-10T16:46:53.000Z,36.66
2019-06-10T16:56:53.000Z,36.757
2019-06-10T17:06:53.000Z,37.088
2019-06-10T17:16:53.000Z,40.676
2019-06-10T17:26:53.000Z,44.3
2019-06-10T17:36:53.000Z,44.906
2019-06-10T17:46:53.000Z,43.731
2019-06-10T17:56:53.000Z,43.647
2019-06-10T18:06:53.000Z,44.901
2019-06-10T18:16:53.000Z,45.46
2019-06-10T18:26:53.000Z,46.53
2019-06-10T18:36:54.000Z,47.371
2019-06-10T18:46:53.000Z,47.234
2019-06-10T18:56:54.000Z,47.827
2019-06-10T19:06:53.000Z,48.482
2019-06-10T19:16:56.000Z,46.988
2019-06-10T19:26:54.000Z,50.157
2019-06-10T19:36:55.000Z,50.883
2019-06-10T19:46:54.000Z,51.505
2019-06-10T20:06:54.000Z,49.371
2019-06-10T20:16:54.000Z,49.214
2019-06-10T20:26:57.000Z,48.833
2019-06-10T20:36:56.000Z,48.797
2019-06-10T20:46:54.000Z,48.829
2019-06-10T20:56:54.000Z,48.824
2019-06-10T21:06:54.000Z,48.662
2019-06-10T21:16:54.000Z,49.009
2019-06-10T21:26:54.000Z,48.958
2019-06-10T21:36:55.000Z,48.879
2019-06-10T21:46:54.000Z,48.161
2019-06-10T21:56:56.000Z,48.006
2019-06-10T22:06:54.000Z,47.904
2019-06-10T22:16:54.000Z,47.813
2019-06-10T22:36:54.000Z,47.64
2019-06-10T22:46:54.000Z,47.529
2019-06-10T22:56:54.000Z,47.372
2019-06-10T23:06:54.000Z,47.303
2019-06-10T23:16:54.000Z,47.169
2019-06-10T23:26:54.000Z,47.157
2019-06-10T23:36:54.000Z,47.013
2019-06-10T23:46:54.000Z,46.955
2019-06-10T23:56:54.000Z,46.973
